createdAt,value
2017-12-19T00:01:39.627Z,4.00
2017-12-19T00:04:14.060Z,3.33
2017-12-19T00:06:47.630Z,3.00
2017-12-19T00:09:22.475Z,4.00
2017-12-19T00:11:58.398Z,3.33
2017-12-19T00:14:32.427Z,4.00
2017-12-19T00:17:07.148Z,3.83
2017-12-19T00:19:41.490Z,3.00
2017-12-19T00:22:25.782Z,4.33
2017-12-19T00:24:59.890Z,4.00
2017-12-19T00:27:36.627Z,4.00
2017-12-19T00:30:13.825Z,3.50
2017-12-19T00:32:47.477Z,4.00
2017-12-19T00:35:22.434Z,3.83
2017-12-19T00:37:57.036Z,3.17
2017-12-19T00:40:31.618Z,5.00
2017-12-19T00:43:05.428Z,4.00
2017-12-19T00:45:40.926Z,3.83
2017-12-19T00:48:15.012Z,4.33
2017-12-19T00:50:49.121Z,3.33
2017-12-19T00:53:23.525Z,4.00
2017-12-19T00:55:58.275Z,3.00
2017-12-19T00:58:33.149Z,4.00
2017-12-19T01:01:07.118Z,4.00
2017-12-19T01:03:41.009Z,4.00
2017-12-19T01:06:22.252Z,3.00
2017-12-19T01:08:56.519Z,3.33
2017-12-19T01:11:30.515Z,3.17
2017-12-19T01:14:04.996Z,3.67
2017-12-19T01:16:44.425Z,4.83
2017-12-19T01:19:20.689Z,3.33
2017-12-19T01:21:55.068Z,3.17
2017-12-19T01:27:14.095Z,3.17
2017-12-19T01:29:48.884Z,4.33
2017-12-19T01:32:23.856Z,3.00
2017-12-19T01:34:58.571Z,6.00
2017-12-19T01:37:33.914Z,4.67
2017-12-19T01:40:08.547Z,5.00
2017-12-19T01:42:50.769Z,3.50
2017-12-19T01:45:25.086Z,3.17
2017-12-19T01:48:01.787Z,3.00
2017-12-19T01:50:37.076Z,3.00
2017-12-19T01:53:11.517Z,3.00
2017-12-19T01:55:49.938Z,4.00
2017-12-19T01:58:26.626Z,3.00
2017-12-19T02:01:01.852Z,4.00
2017-12-19T02:03:36.795Z,3.17
2017-12-19T02:06:15.867Z,3.17
2017-12-19T02:08:51.353Z,4.33
2017-12-19T02:11:26.729Z,3.50
2017-12-19T02:14:01.082Z,4.00
2017-12-19T02:16:42.109Z,5.33
2017-12-19T02:19:16.688Z,4.50
2017-12-19T02:21:50.903Z,3.33
2017-12-19T02:24:25.550Z,3.83
2017-12-19T02:27:00.572Z,4.50
2017-12-19T02:29:35.443Z,3.00
2017-12-19T02:32:10.632Z,4.50
2017-12-19T02:34:46.057Z,3.00
2017-12-19T02:37:21.681Z,3.83
2017-12-19T02:39:55.913Z,3.50
2017-12-19T02:42:39.967Z,4.83
2017-12-19T02:45:16.961Z,3.50
2017-12-19T02:47:52.415Z,4.33
2017-12-19T02:50:28.132Z,3.00
2017-12-19T02:53:06.176Z,3.00
2017-12-19T02:55:46.406Z,4.17
2017-12-19T02:58:23.657Z,3.00
2017-12-19T03:00:58.126Z,4.33
2017-12-19T03:03:33.416Z,4.33
2017-12-19T03:06:07.901Z,3.00
2017-12-19T03:08:42.722Z,3.67
2017-12-19T03:11:17.970Z,3.67
2017-12-19T03:13:51.974Z,4.17
2017-12-19T03:16:27.232Z,5.67
2017-12-19T03:19:01.984Z,5.17
2017-12-19T03:21:35.699Z,3.33
2017-12-19T03:24:11.423Z,2.83
2017-12-19T03:26:46.264Z,4.17
2017-12-19T03:29:24.027Z,3.33
2017-12-19T03:31:59.626Z,3.00
2017-12-19T03:34:34.607Z,5.00
2017-12-19T03:37:08.907Z,4.00
2017-12-19T03:39:45.802Z,5.00
2017-12-19T03:42:21.514Z,4.50
2017-12-19T03:44:56.150Z,5.33
2017-12-19T03:47:31.771Z,5.00
2017-12-19T03:50:07.714Z,5.00
2017-12-19T03:52:42.682Z,5.17
2017-12-19T03:55:18.330Z,5.00
2017-12-19T03:57:52.695Z,3.17
2017-12-19T04:00:28.263Z,4.83
2017-12-19T04:03:03.351Z,5.00
2017-12-19T04:05:37.590Z,3.67
2017-12-19T04:08:12.680Z,3.50
2017-12-19T04:10:47.016Z,3.00
2017-12-19T04:13:22.477Z,5.00
2017-12-19T04:15:58.108Z,5.00
2017-12-19T04:18:35.115Z,4.00
2017-12-19T04:21:10.298Z,5.33
2017-12-19T04:23:45.440Z,5.33
2017-12-19T04:26:19.995Z,5.83
2017-12-19T04:28:54.680Z,5.00
2017-12-19T04:31:30.053Z,5.00
2017-12-19T04:34:05.660Z,3.00
2017-12-19T04:36:44.021Z,4.67
2017-12-19T04:39:19.045Z,5.33
2017-12-19T04:41:54.065Z,6.50
2017-12-19T04:44:28.728Z,4.67
2017-12-19T04:47:03.458Z,5.00
2017-12-19T04:49:39.393Z,5.00
2017-12-19T04:52:14.970Z,5.00
2017-12-19T04:54:50.325Z,5.00
2017-12-19T04:57:26.017Z,3.00
2017-12-19T05:00:02.839Z,4.67
2017-12-19T05:02:40.765Z,5.00
2017-12-19T05:05:16.469Z,5.00
2017-12-19T05:07:51.178Z,3.83
2017-12-19T05:13:22.406Z,5.50
2017-12-19T05:15:56.710Z,5.00
2017-12-19T05:18:31.622Z,3.83
2017-12-19T05:21:06.218Z,5.67
2017-12-19T05:23:40.263Z,5.00
2017-12-19T05:26:16.947Z,5.00
2017-12-19T05:28:53.493Z,4.67
2017-12-19T05:31:27.227Z,5.50
2017-12-19T05:34:01.293Z,4.50
2017-12-19T05:36:38.813Z,5.00
2017-12-19T05:39:13.330Z,3.33
2017-12-19T05:41:49.877Z,5.00
2017-12-19T05:44:25.246Z,5.17
2017-12-19T05:46:59.773Z,6.00
2017-12-19T05:49:36.578Z,6.00
2017-12-19T05:52:11.271Z,4.50
2017-12-19T05:54:45.472Z,5.00
2017-12-19T05:57:20.390Z,5.00
2017-12-19T05:59:55.055Z,3.83
2017-12-19T06:02:30.110Z,4.00
2017-12-19T06:05:04.839Z,5.33
2017-12-19T06:07:41.644Z,5.50
2017-12-19T06:10:16.669Z,5.00
2017-12-19T06:12:53.254Z,5.00
2017-12-19T06:15:27.959Z,6.00
2017-12-19T06:18:02.541Z,5.00
2017-12-19T06:20:37.552Z,5.17
2017-12-19T06:23:11.873Z,5.00
2017-12-19T06:25:46.623Z,4.83
2017-12-19T06:28:22.600Z,5.17
2017-12-19T06:30:57.923Z,4.50
2017-12-19T06:33:34.108Z,6.00
2017-12-19T06:36:08.457Z,5.00
2017-12-19T06:38:42.489Z,5.67
2017-12-19T06:41:16.524Z,5.00
2017-12-19T06:43:49.910Z,5.00
2017-12-19T06:46:24.010Z,5.00
2017-12-19T06:48:59.148Z,5.00
2017-12-19T06:51:34.006Z,5.00
2017-12-19T06:54:09.657Z,4.33
2017-12-19T06:56:43.898Z,4.17
2017-12-19T06:59:18.773Z,4.50
2017-12-19T07:01:54.505Z,4.00
2017-12-19T07:04:28.582Z,4.50
2017-12-19T07:07:02.805Z,4.00
2017-12-19T07:09:39.305Z,4.83
2017-12-19T07:12:13.429Z,4.83
2017-12-19T07:14:48.709Z,5.00
2017-12-19T07:17:30.612Z,5.50
2017-12-19T07:20:06.037Z,5.67
2017-12-19T07:22:41.990Z,4.00
2017-12-19T07:25:17.140Z,5.17
2017-12-19T07:27:51.920Z,4.67
2017-12-19T07:30:28.447Z,4.17
2017-12-19T07:33:03.494Z,4.83
2017-12-19T07:35:38.710Z,5.83
2017-12-19T07:38:12.747Z,5.50
2017-12-19T07:40:47.651Z,5.67
2017-12-19T07:43:22.198Z,5.00
2017-12-19T07:45:57.768Z,5.00
2017-12-19T07:48:31.885Z,5.00
2017-12-19T07:51:06.426Z,6.00
2017-12-19T07:53:41.410Z,5.00
2017-12-19T07:56:22.937Z,5.33
2017-12-19T07:58:57.488Z,5.67
2017-12-19T08:01:33.188Z,5.83
2017-12-19T08:04:07.266Z,5.17
2017-12-19T08:06:43.372Z,5.67
2017-12-19T08:09:17.988Z,5.17
2017-12-19T08:11:51.985Z,5.17
2017-12-19T08:14:27.035Z,5.67
2017-12-19T08:17:01.413Z,5.50
2017-12-19T08:19:48.876Z,5.83
2017-12-19T08:22:23.053Z,4.67
2017-12-19T08:24:57.116Z,5.00
2017-12-19T08:27:31.005Z,5.67
2017-12-19T08:30:07.554Z,5.67
2017-12-19T08:32:42.037Z,6.00
2017-12-19T08:35:16.369Z,6.17
2017-12-19T08:37:51.263Z,5.67
2017-12-19T08:40:25.647Z,6.00
2017-12-19T08:43:00.267Z,5.33
2017-12-19T08:45:35.616Z,5.50
2017-12-19T08:48:16.949Z,6.33
2017-12-19T08:50:52.602Z,5.83
2017-12-19T08:53:27.403Z,6.00
2017-12-19T08:56:05.452Z,6.17
2017-12-19T08:58:40.544Z,5.67
2017-12-19T09:01:16.552Z,6.00
2017-12-19T09:03:50.567Z,7.33
2017-12-19T09:06:25.196Z,5.50
2017-12-19T09:09:00.148Z,7.33
2017-12-19T09:11:34.782Z,6.00
2017-12-19T09:14:10.076Z,6.00
2017-12-19T09:16:44.344Z,5.67
2017-12-19T09:19:18.358Z,5.83
2017-12-19T09:21:52.987Z,5.83
2017-12-19T09:24:30.010Z,5.33
2017-12-19T09:27:05.022Z,5.50
2017-12-19T09:29:39.007Z,5.83
2017-12-19T09:32:14.888Z,5.50
2017-12-19T09:34:50.212Z,6.67
2017-12-19T09:37:24.512Z,6.00
2017-12-19T09:39:59.733Z,4.67
2017-12-19T09:42:35.036Z,6.00
2017-12-19T09:45:09.733Z,5.67
2017-12-19T09:47:46.156Z,6.00
2017-12-19T09:50:30.110Z,6.00
2017-12-19T09:53:04.647Z,5.83
2017-12-19T09:55:40.070Z,6.00
2017-12-19T09:58:16.005Z,6.00
2017-12-19T10:00:50.065Z,6.00
2017-12-19T10:03:24.639Z,7.00
2017-12-19T10:05:58.628Z,5.17
2017-12-19T10:08:35.032Z,6.00
2017-12-19T10:11:09.764Z,6.17
2017-12-19T10:13:43.799Z,6.00
2017-12-19T10:16:21.979Z,6.83
2017-12-19T10:18:57.676Z,5.71
2017-12-19T10:21:34.144Z,7.17
2017-12-19T10:24:09.473Z,8.17
2017-12-19T10:26:44.629Z,7.00
2017-12-19T10:29:19.639Z,7.83
2017-12-19T10:31:53.541Z,9.00
2017-12-19T10:34:29.892Z,6.67
2017-12-19T10:37:05.932Z,7.50
2017-12-19T10:39:42.777Z,9.00
2017-12-19T10:42:17.160Z,7.00
2017-12-19T10:44:51.445Z,6.50
2017-12-19T10:47:28.079Z,7.00
2017-12-19T10:50:02.808Z,7.67
2017-12-19T10:52:44.191Z,7.17
2017-12-19T10:55:19.581Z,7.00
2017-12-19T10:57:57.582Z,6.67
2017-12-19T11:00:41.884Z,7.00
2017-12-19T11:03:16.250Z,7.17
2017-12-19T11:05:51.882Z,7.00
2017-12-19T11:08:27.234Z,9.00
2017-12-19T11:11:06.135Z,7.83
2017-12-19T11:13:42.783Z,6.17
2017-12-19T11:16:20.029Z,8.71
2017-12-19T11:18:57.509Z,7.80
2017-12-19T11:21:37.744Z,9.00
2017-12-19T11:24:18.847Z,8.83
2017-12-19T11:26:53.409Z,7.33
2017-12-19T11:29:34.189Z,9.57
2017-12-19T11:32:21.311Z,9.57
2017-12-19T11:34:57.216Z,8.33
2017-12-19T11:37:38.722Z,10.14
2017-12-19T11:40:15.033Z,7.50
2017-12-19T11:42:50.152Z,10.40
2017-12-19T11:45:28.782Z,9.00
2017-12-19T11:48:14.869Z,11.20
2017-12-19T11:50:51.170Z,8.33
2017-12-19T11:53:33.894Z,9.14
2017-12-19T11:56:21.858Z,10.40
2017-12-19T11:58:58.975Z,8.00
2017-12-19T12:01:38.804Z,8.33
2017-12-19T12:04:16.536Z,8.00
2017-12-19T12:06:54.498Z,8.80
2017-12-19T12:09:35.714Z,8.00
2017-12-19T12:12:14.672Z,8.00
2017-12-19T12:14:52.172Z,8.00
2017-12-19T12:17:30.941Z,7.50
2017-12-19T12:20:10.739Z,7.50
2017-12-19T12:22:50.576Z,7.50
2017-12-19T12:28:18.378Z,7.83
2017-12-19T12:31:05.135Z,8.17
2017-12-19T12:33:52.049Z,6.67
2017-12-19T12:36:40.612Z,7.50
2017-12-19T12:42:15.620Z,8.17
2017-12-19T12:45:04.982Z,7.83
2017-12-19T12:47:49.358Z,6.00
2017-12-19T12:50:33.640Z,8.67
2017-12-19T12:53:17.327Z,7.00
2017-12-19T12:55:59.664Z,7.17
2017-12-19T12:58:40.317Z,8.00
2017-12-19T13:01:20.509Z,8.67
2017-12-19T13:04:05.604Z,7.00
2017-12-19T13:06:53.249Z,7.67
2017-12-19T13:09:46.754Z,7.83
2017-12-19T13:12:32.612Z,7.00
2017-12-19T13:15:14.520Z,7.83
2017-12-19T13:17:59.609Z,7.33
2017-12-19T13:20:44.629Z,7.33
2017-12-19T13:23:47.217Z,6.50
2017-12-19T13:26:37.787Z,7.50
2017-12-19T13:29:24.505Z,7.83
2017-12-19T13:35:06.193Z,7.50
2017-12-19T13:37:54.369Z,7.33
2017-12-19T13:40:41.788Z,7.00
2017-12-19T13:43:25.307Z,7.33
2017-12-19T13:46:10.341Z,7.00
2017-12-19T13:48:55.646Z,7.00
2017-12-19T13:51:43.364Z,6.83
2017-12-19T13:54:25.456Z,7.67
2017-12-19T13:57:11.770Z,7.50
2017-12-19T14:00:11.306Z,6.00
2017-12-19T14:03:05.489Z,7.00
2017-12-19T14:05:48.082Z,7.67
2017-12-19T14:08:35.002Z,6.50
2017-12-19T14:11:18.985Z,7.00
2017-12-19T14:14:02.786Z,6.50
2017-12-19T14:16:56.422Z,6.50
2017-12-19T14:19:48.503Z,7.00
2017-12-19T14:22:28.400Z,6.50
2017-12-19T14:25:18.996Z,8.83
2017-12-19T14:28:02.910Z,7.00
2017-12-19T14:30:53.714Z,7.33
2017-12-19T14:33:40.238Z,6.14
2017-12-19T14:36:27.033Z,6.67
2017-12-19T14:39:17.043Z,7.00
2017-12-19T14:41:59.592Z,7.00
2017-12-19T14:44:59.403Z,7.00
2017-12-19T14:47:58.519Z,6.83
2017-12-19T14:50:47.419Z,6.67
2017-12-19T14:53:30.425Z,7.00
2017-12-19T14:56:23.090Z,7.40
2017-12-19T14:59:05.271Z,6.00
2017-12-19T15:02:05.495Z,6.00
2017-12-19T15:04:49.969Z,7.00
2017-12-19T15:07:43.901Z,7.00
2017-12-19T15:10:27.758Z,8.00
2017-12-19T15:13:12.419Z,6.50
2017-12-19T15:16:08.950Z,6.50
2017-12-19T15:18:55.813Z,8.33
2017-12-19T15:21:39.640Z,4.33
2017-12-19T15:24:28.566Z,7.67
2017-12-19T15:30:26.836Z,8.57
2017-12-19T15:33:16.823Z,6.67
2017-12-19T15:35:59.345Z,7.00
2017-12-19T15:38:57.790Z,7.00
2017-12-19T15:41:52.148Z,6.00
2017-12-19T15:44:45.398Z,5.67
2017-12-19T15:47:40.103Z,7.00
2017-12-19T15:53:36.333Z,7.33
2017-12-19T15:56:22.266Z,7.00
2017-12-19T15:59:06.387Z,8.00
2017-12-19T16:01:54.840Z,7.33
2017-12-19T16:04:42.342Z,6.50
2017-12-19T16:07:26.958Z,6.83
2017-12-19T16:13:03.262Z,6.00
2017-12-19T16:15:59.457Z,6.83
2017-12-19T16:19:09.857Z,6.00
2017-12-19T16:22:10.604Z,6.17
2017-12-19T16:25:15.417Z,4.67
2017-12-19T16:28:14.204Z,4.17
2017-12-19T16:31:05.304Z,6.17
2017-12-19T16:33:46.990Z,4.67
2017-12-19T16:36:28.782Z,5.00
2017-12-19T16:39:13.387Z,5.50
2017-12-19T16:42:01.784Z,5.17
2017-12-19T16:44:45.470Z,4.50
2017-12-19T16:47:31.537Z,5.50
2017-12-19T16:50:14.813Z,6.00
2017-12-19T16:53:01.257Z,6.50
2017-12-19T16:55:47.249Z,7.00
2017-12-19T16:58:32.990Z,6.50
2017-12-19T17:01:16.797Z,4.00
2017-12-19T17:03:58.445Z,5.33
2017-12-19T17:06:41.292Z,4.17
2017-12-19T17:09:28.798Z,4.50
2017-12-19T17:12:09.765Z,5.00
2017-12-19T17:15:05.577Z,4.17
2017-12-19T17:17:46.076Z,5.33
2017-12-19T17:20:40.345Z,4.17
2017-12-19T17:26:31.854Z,6.33
2017-12-19T17:29:19.084Z,4.00
2017-12-19T17:32:08.616Z,4.83
2017-12-19T17:34:52.585Z,4.83
2017-12-19T17:37:41.024Z,4.33
2017-12-19T17:40:30.079Z,4.67
2017-12-19T17:43:17.251Z,4.50
2017-12-19T17:46:05.182Z,5.17
2017-12-19T17:48:50.221Z,3.67
2017-12-19T17:51:37.959Z,3.67
2017-12-19T17:54:21.049Z,5.50
2017-12-19T17:57:07.408Z,5.33
2017-12-19T17:59:53.708Z,4.00
2017-12-19T18:02:39.006Z,4.67
2017-12-19T18:05:41.798Z,5.17
2017-12-19T18:08:27.395Z,5.33
2017-12-19T18:11:16.448Z,4.83
2017-12-19T18:14:06.852Z,5.50
2017-12-19T18:17:01.824Z,6.33
2017-12-19T18:19:50.897Z,5.00
2017-12-19T18:22:38.223Z,5.00
2017-12-19T18:25:24.316Z,4.67
2017-12-19T18:28:15.120Z,5.00
2017-12-19T18:31:08.251Z,6.17
2017-12-19T18:36:49.270Z,6.83
2017-12-19T18:39:41.515Z,7.00
2017-12-19T18:42:26.675Z,5.50
2017-12-19T18:45:31.679Z,7.00
2017-12-19T18:48:14.908Z,7.00
2017-12-19T18:50:51.340Z,6.83
2017-12-19T18:53:25.335Z,7.50
2017-12-19T18:55:59.028Z,7.83
2017-12-19T18:58:34.218Z,7.33
2017-12-19T19:01:07.875Z,6.50
2017-12-19T19:03:41.714Z,8.83
2017-12-19T19:06:15.860Z,8.17
2017-12-19T19:08:49.414Z,7.67
2017-12-19T19:11:23.188Z,7.17
2017-12-19T19:13:57.304Z,7.83
2017-12-19T19:16:31.123Z,8.00
2017-12-19T19:19:05.768Z,10.00
2017-12-19T19:21:37.850Z,9.00
2017-12-19T19:24:09.868Z,9.67
2017-12-19T19:26:41.893Z,8.00
2017-12-19T19:29:14.087Z,8.00
2017-12-19T19:31:47.151Z,10.00
2017-12-19T19:34:21.802Z,10.14
2017-12-19T19:36:54.092Z,9.00
2017-12-19T19:39:27.857Z,8.00
2017-12-19T19:42:01.495Z,9.00
2017-12-19T19:44:35.644Z,8.33
2017-12-19T19:47:09.403Z,8.33
2017-12-19T19:49:41.317Z,7.00
2017-12-19T19:52:14.992Z,8.50
2017-12-19T19:54:48.688Z,7.33
2017-12-19T19:57:22.772Z,8.00
2017-12-19T19:59:56.672Z,7.00
2017-12-19T20:02:30.432Z,5.33
2017-12-19T20:05:04.159Z,7.00
2017-12-19T20:07:37.811Z,8.00
2017-12-19T20:10:11.528Z,6.33
2017-12-19T20:12:45.160Z,7.00
2017-12-19T20:15:19.407Z,7.00
2017-12-19T20:17:51.394Z,6.00
2017-12-19T20:20:25.411Z,6.50
2017-12-19T20:22:58.924Z,7.00
2017-12-19T20:25:32.670Z,6.83
2017-12-19T20:28:06.879Z,6.50
2017-12-19T20:30:40.979Z,7.00
2017-12-19T20:33:15.715Z,7.17
2017-12-19T20:35:49.522Z,6.50
2017-12-19T20:38:23.387Z,6.50
2017-12-19T20:40:57.039Z,8.17
2017-12-19T20:43:30.807Z,7.00
2017-12-19T20:46:06.562Z,9.57
2017-12-19T20:48:38.867Z,7.00
2017-12-19T20:51:13.587Z,8.00
2017-12-19T20:53:47.328Z,7.83
2017-12-19T20:56:20.890Z,8.83
2017-12-19T20:58:55.512Z,8.57
2017-12-19T21:01:29.621Z,7.67
2017-12-19T21:04:03.412Z,8.17
2017-12-19T21:06:37.211Z,8.00
2017-12-19T21:09:11.011Z,7.17
2017-12-19T21:11:45.576Z,9.29
2017-12-19T21:14:19.256Z,8.83
2017-12-19T21:16:53.477Z,6.83
2017-12-19T21:19:27.321Z,8.00
2017-12-19T21:22:01.019Z,8.83
2017-12-19T21:24:34.786Z,8.50
2017-12-19T21:27:09.292Z,7.50
2017-12-19T21:29:43.924Z,8.86
2017-12-19T21:32:15.998Z,7.00
2017-12-19T21:34:49.668Z,9.00
2017-12-19T21:37:24.234Z,7.50
2017-12-19T21:39:57.972Z,8.67
2017-12-19T21:42:31.572Z,8.33
2017-12-19T21:45:06.726Z,9.00
2017-12-19T21:47:40.959Z,7.50
2017-12-19T21:50:14.484Z,8.00
2017-12-19T21:52:48.088Z,5.67
2017-12-19T21:55:21.749Z,7.50
2017-12-19T21:57:55.586Z,7.00
2017-12-19T22:00:29.268Z,6.17
2017-12-19T22:03:03.423Z,8.67
2017-12-19T22:05:36.957Z,8.00
2017-12-19T22:08:11.391Z,8.00
2017-12-19T22:10:45.407Z,7.50
2017-12-19T22:13:19.780Z,9.00
2017-12-19T22:15:53.644Z,8.33
2017-12-19T22:18:27.398Z,7.33
2017-12-19T22:21:01.105Z,7.00
2017-12-19T22:23:35.782Z,7.86
2017-12-19T22:26:09.841Z,7.00
2017-12-19T22:28:43.675Z,7.50
2017-12-19T22:31:17.265Z,7.33
2017-12-19T22:33:50.790Z,7.00
2017-12-19T22:36:24.932Z,6.00
2017-12-19T22:38:58.638Z,7.67
2017-12-19T22:41:32.491Z,8.00
2017-12-19T22:44:06.565Z,7.00
2017-12-19T22:46:40.300Z,6.83
2017-12-19T22:49:14.668Z,7.83
2017-12-19T22:51:48.490Z,7.17
2017-12-19T22:54:22.200Z,7.17
2017-12-19T22:56:56.289Z,5.67
2017-12-19T22:59:29.858Z,7.00
2017-12-19T23:02:03.472Z,7.17
2017-12-19T23:04:36.980Z,6.83
2017-12-19T23:07:10.681Z,7.00
2017-12-19T23:09:44.275Z,7.17
2017-12-19T23:12:17.876Z,7.17
2017-12-19T23:14:51.990Z,7.00
2017-12-19T23:17:27.334Z,6.17
2017-12-19T23:20:01.173Z,5.67
2017-12-19T23:22:34.891Z,7.67
2017-12-19T23:25:08.465Z,6.00
2017-12-19T23:27:42.221Z,6.00
2017-12-19T23:30:16.191Z,6.50
2017-12-19T23:32:50.011Z,6.50
2017-12-19T23:35:24.098Z,5.67
2017-12-19T23:37:58.023Z,7.50
2017-12-19T23:40:31.717Z,7.00
2017-12-19T23:43:05.770Z,7.33
2017-12-19T23:45:39.383Z,6.00
2017-12-19T23:48:14.048Z,7.00
2017-12-19T23:50:47.666Z,7.33
2017-12-19T23:53:21.484Z,7.00
2017-12-19T23:55:55.090Z,5.83
2017-12-19T23:58:29.098Z,6.33
